WetterOnline ( https://www.wetteronline.at )

Wetter aktuell Leck

Aktuelles Wetter: Leck (17m)

6-stündlich | Neueste Meldungen
Ortszeit Temperatur Wetter
Di, 27.09. 8:00 9.8° C leichter Regen
Di, 27.09. 2:00 7.7° C Nebel
Mo, 26.09. 20:00 11.7° C Regen
Mo, 26.09. 14:00 11.8° C leichter Regen
Mo, 26.09. 8:00 11.4° C leichter Regen
Mo, 26.09. 2:00 10.6° C wolkig
So, 25.09. 20:00 10.1° C wolkig
So, 25.09. 14:00 16.1° C leicht bewölkt
Ortszeit Temperatur Wetter
Di, 27.09. 12:00 10.9° C leichter Regen
Di, 27.09. 11:50 10.9° C leichter Regen
Di, 27.09. 11:40 10.9° C leichter Regen
Di, 27.09. 11:30 10.8° C leichter Regen
Di, 27.09. 11:20 10.8° C leichter Regen
Di, 27.09. 11:10 10.7° C leichter Regen
Di, 27.09. 11:00 10.7° C leichter Regen
Di, 27.09. 10:30 10.5° C leichter Regen
Di, 27.09. 10:00 10.3° C leichter Regen
Di, 27.09. 9:30 10.2° C leichter Regen
Di, 27.09. 9:00 10.0° C leichter Regen
Ortszeit Relative Feuchte Sichtweite
Di, 27.09. 8:00 99% 10 km
Di, 27.09. 2:00 97% 0.5 km
Mo, 26.09. 20:00 95% 25 km
Mo, 26.09. 14:00 88% 21 km
Mo, 26.09. 8:00 90% 14 km
Mo, 26.09. 2:00 88% 50 km
So, 25.09. 20:00 79% 55 km
So, 25.09. 14:00 60% >70 km
Ortszeit Relative Feuchte Sichtweite
Di, 27.09. 12:00 90% 24 km
Di, 27.09. 11:50 90% -
Di, 27.09. 11:40 90% -
Di, 27.09. 11:30 92% 25 km
Di, 27.09. 11:20 92% -
Di, 27.09. 11:10 93% -
Di, 27.09. 11:00 94% 14 km
Di, 27.09. 10:30 95% 22 km
Di, 27.09. 10:00 97% 24 km
Di, 27.09. 9:30 97% 17 km
Di, 27.09. 9:00 97% 14 km
Ortszeit Niederschlagsmenge Niederschlagsart
Di, 27.09. 8:00 5 l/m2 in 12 Std. Regen
Di, 27.09. 2:00 2 l/m2 in 6 Std. Regen
Mo, 26.09. 20:00 8 l/m2 in 12 Std. Regen
Mo, 26.09. 14:00 0.9 l/m2 in 6 Std. Regen
Mo, 26.09. 8:00 6 l/m2 in 12 Std. Regen
Mo, 26.09. 2:00 0.1 l/m2 in 6 Std. Regen
So, 25.09. 20:00 0.1 l/m2 in 12 Std. -
So, 25.09. 14:00 0.1 l/m2 in 6 Std. -
Ortszeit Niederschlagsmenge Niederschlagsart
Di, 27.09. 12:00 0.3 l/m2 in 1 Std. Regen
Di, 27.09. 11:50 keine Meldung -
Di, 27.09. 11:40 keine Meldung -
Di, 27.09. 11:30 0.3 l/m2 in 1 Std. -
Di, 27.09. 11:20 keine Meldung -
Di, 27.09. 11:10 keine Meldung -
Di, 27.09. 11:00 0.6 l/m2 in 1 Std. Regen
Di, 27.09. 10:30 0.2 l/m2 in 1 Std. -
Di, 27.09. 10:00 0.5 l/m2 in 1 Std. Regen
Di, 27.09. 9:30 0.3 l/m2 in 1 Std. -
Di, 27.09. 9:00 0.9 l/m2 in 1 Std. Regen
Ortszeit Stärke Spitze Richtung
km/h Bft. km/h Grad Sektor
Di, 27.09. 8:00 6 1 13 290° W
Di, 27.09. 2:00 4 1 43 190° S
Mo, 26.09. 20:00 22 4 54 180° S
Mo, 26.09. 14:00 25 4 50 180° S
Mo, 26.09. 8:00 29 5 43 200° S
Mo, 26.09. 2:00 9 2 19 200° S
So, 25.09. 20:00 9 2 31 250° W
So, 25.09. 14:00 14 3 25 310° NW
Ortszeit Stärke Spitze Richtung
km/h Bft. km/h Grad Sektor
Di, 27.09. 12:00 7 2 11 320° NW
Di, 27.09. 11:50 7 2 - 320° NW
Di, 27.09. 11:40 7 2 - 320° NW
Di, 27.09. 11:30 7 2 11 310° NW
Di, 27.09. 11:20 7 2 - 310° NW
Di, 27.09. 11:10 6 1 - 310° NW
Di, 27.09. 11:00 4 1 7 310° NW
Di, 27.09. 10:30 4 1 7 300° NW
Di, 27.09. 10:00 4 1 7 320° NW
Di, 27.09. 9:30 4 1 7 310° NW
Di, 27.09. 9:00 6 1 7 290° W
Ortszeit Untergrenze Bedeckung Gattung
total tief tief mittel hoch
Di, 27.09. 8:00 90 m 8/8 8/8 - - -
Di, 27.09. 2:00 <30 m 8/8 0/8 - - -
Mo, 26.09. 20:00 240 m 8/8 8/8 - - -
Mo, 26.09. 14:00 450 m 7/8 7/8 - - -
Mo, 26.09. 8:00 1140 m 8/8 8/8 - - -
Mo, 26.09. 2:00 960 m 8/8 1/8 - - -
So, 25.09. 20:00 7800 m 8/8 0/8 - - -
So, 25.09. 14:00 960 m 3/8 3/8 - - -
Ortszeit Bedeckungsgrad in Achtel und Wolkenuntergrenze
Di, 27.09. 12:00 3(630m) 4(1260m) 7(1500m)
Di, 27.09. 11:50 3(630m) 4(1260m) 7(1500m)
Di, 27.09. 11:40 7
Di, 27.09. 11:30 1(720m) 5(1500m) 6(1800m)
Di, 27.09. 11:20 1(720m) 5(1500m) 6(1800m)
Di, 27.09. 11:10 7
Di, 27.09. 11:00 2(660m) 7(1470m) 8(1500m)
Di, 27.09. 10:30 1(780m) 5(1440m) 6(1500m)
Di, 27.09. 10:00 7(1410m)
Di, 27.09. 9:30 7(1380m) 8(1500m)
Di, 27.09. 9:00 1(60m) 8(1500m)
Ortszeit Luftdruck NN (hPa) Tendenz (hPa in 3 Std.)
Di, 27.09. 8:00 991 - 0,1
Di, 27.09. 2:00 991 - 0,4
Mo, 26.09. 20:00 992 - 1,7
Mo, 26.09. 14:00 996 - 1,5
Mo, 26.09. 8:00 998 - 3,0
Mo, 26.09. 2:00 1004 - 3,4
So, 25.09. 20:00 1009 - 1,1
So, 25.09. 14:00 1012 - 1,3
Ortszeit Luftdruck NN (hPa) Tendenz (hPa in 3 Std.)
Di, 27.09. 12:00 992 + 1,1
Di, 27.09. 11:50 992 keine Meldung
Di, 27.09. 11:40 992 keine Meldung
Di, 27.09. 11:30 992 + 1,2
Di, 27.09. 11:20 992 keine Meldung
Di, 27.09. 11:10 992 keine Meldung
Di, 27.09. 11:00 992 + 1,1
Di, 27.09. 10:30 992 + 1,0
Di, 27.09. 10:00 992 + 0,8
Di, 27.09. 9:30 991 + 0,5
Di, 27.09. 9:00 991 + 0,3
Ortszeit Schneehöhe (cm)
Di, 27.09. 8:00 0
Di, 27.09. 2:00 0
Mo, 26.09. 20:00 0
Mo, 26.09. 14:00 0
Mo, 26.09. 8:00 0
Mo, 26.09. 2:00 0
So, 25.09. 20:00 0
So, 25.09. 14:00 0
Ortszeit Schneehöhe (cm)
Di, 27.09. 12:00 0
Di, 27.09. 11:50 0
Di, 27.09. 11:40 0
Di, 27.09. 11:30 0
Di, 27.09. 11:20 0
Di, 27.09. 11:10 0
Di, 27.09. 11:00 0
Di, 27.09. 10:30 0
Di, 27.09. 10:00 0
Di, 27.09. 9:30 0
Di, 27.09. 9:00 0
Link zu dieser Seite / Seite empfehlen

Das Wetter in ...